DLH1703 LBSF-EDDM
Flight info
| Callsign | DLH1703 |
|---|---|
| Flight time | 1h 39m |
| Altitude | 36000 |
| Route | OGOTA T228 UTEKA DCT POZ DCT KOTUS DCT BABIT DCT SUNIS DCT AMADI Q113 NAPSA NAPSA4A |
| Aircraft | A321/M-SDE3FGHIRWY/LB1 |
Departure
| Time | 2026-04-30 08:39 |
|---|---|
| Airport | Sofia Airport (LBSF) |
Arrival
| Time | 2026-04-30 10:18 |
|---|---|
| Airport | Munich Airport (EDDM) |
| Time | Latitude | Longitude | Altitude | Speed | Heading |
|---|---|---|---|---|---|
| 2026-04-30 08:03 | 42.69036 | 23.41522 | 1743 ft | 0 kts | 253° |
| 2026-04-30 08:29 | 42.69040 | 23.41537 | 1742 ft | 3 kts | 244° |
| 2026-04-30 08:29 | 42.69047 | 23.41561 | 1747 ft | 3 kts | 243° |
| 2026-04-30 08:29 | 42.69058 | 23.41583 | 1741 ft | 3 kts | 219° |
| 2026-04-30 08:29 | 42.69075 | 23.41597 | 1747 ft | 3 kts | 198° |
| 2026-04-30 08:30 | 42.69092 | 23.41604 | 1748 ft | 2 kts | 202° |
| 2026-04-30 08:30 | 42.69098 | 23.41607 | 1747 ft | 0 kts | 202° |
| 2026-04-30 08:33 | 42.69091 | 23.41610 | 1748 ft | 1 kts | 159° |
| 2026-04-30 08:33 | 42.69089 | 23.41618 | 1732 ft | 3 kts | 118° |
| 2026-04-30 08:33 | 42.69094 | 23.41695 | 1741 ft | 8 kts | 75° |
| 2026-04-30 08:33 | 42.69115 | 23.41793 | 1746 ft | 14 kts | 73° |
| 2026-04-30 08:34 | 42.69142 | 23.41918 | 1751 ft | 13 kts | 75° |
| 2026-04-30 08:34 | 42.69169 | 23.42037 | 1747 ft | 18 kts | 73° |
| 2026-04-30 08:34 | 42.69220 | 23.42268 | 1749 ft | 24 kts | 73° |
| 2026-04-30 08:34 | 42.69319 | 23.42414 | 1751 ft | 21 kts | 12° |
| 2026-04-30 08:35 | 42.69411 | 23.42509 | 1747 ft | 17 kts | 86° |
| 2026-04-30 08:35 | 42.69399 | 23.42732 | 1752 ft | 28 kts | 95° |
| 2026-04-30 08:35 | 42.69383 | 23.42988 | 1748 ft | 26 kts | 95° |
| 2026-04-30 08:35 | 42.69369 | 23.43222 | 1752 ft | 24 kts | 95° |
| 2026-04-30 08:36 | 42.69356 | 23.43438 | 1752 ft | 22 kts | 95° |
| 2026-04-30 08:36 | 42.69345 | 23.43627 | 1752 ft | 19 kts | 95° |
| 2026-04-30 08:36 | 42.69335 | 23.43795 | 1772 ft | 17 kts | 94° |
| 2026-04-30 08:36 | 42.69351 | 23.43921 | 1781 ft | 12 kts | 45° |
| 2026-04-30 08:37 | 42.69423 | 23.43950 | 1782 ft | 10 kts | 7° |
| 2026-04-30 08:37 | 42.69487 | 23.43948 | 1774 ft | 9 kts | 346° |
| 2026-04-30 08:37 | 42.69519 | 23.43885 | 1773 ft | 8 kts | 276° |
| 2026-04-30 08:37 | 42.69520 | 23.43866 | 1781 ft | 0 kts | 274° |
| 2026-04-30 08:38 | 42.69522 | 23.43835 | 1779 ft | 20 kts | 274° |
| 2026-04-30 08:38 | 42.69555 | 23.43294 | 1753 ft | 92 kts | 275° |
| 2026-04-30 08:38 | 42.69624 | 23.42140 | 1742 ft | 150 kts | 275° |
| 2026-04-30 08:38 | 42.69713 | 23.40561 | 2099 ft | 170 kts | 276° |
| 2026-04-30 08:39 | 42.69866 | 23.38978 | 2869 ft | 170 kts | 288° |
| 2026-04-30 08:39 | 42.70349 | 23.37506 | 3619 ft | 173 kts | 303° |
| 2026-04-30 08:39 | 42.71174 | 23.36210 | 4065 ft | 193 kts | 321° |
| 2026-04-30 08:39 | 42.72387 | 23.35244 | 4372 ft | 213 kts | 340° |
| 2026-04-30 08:40 | 42.73930 | 23.34833 | 4634 ft | 238 kts | 354° |
| 2026-04-30 08:40 | 42.75623 | 23.34571 | 5099 ft | 254 kts | 354° |
| 2026-04-30 08:40 | 42.77408 | 23.34280 | 5837 ft | 260 kts | 353° |
| 2026-04-30 08:40 | 42.79224 | 23.33973 | 6583 ft | 266 kts | 353° |
| 2026-04-30 08:41 | 42.81081 | 23.33658 | 7243 ft | 272 kts | 351° |
| 2026-04-30 08:41 | 42.82981 | 23.33335 | 7898 ft | 278 kts | 351° |
| 2026-04-30 08:41 | 42.84923 | 23.33010 | 8570 ft | 283 kts | 352° |
| 2026-04-30 08:41 | 42.86908 | 23.32838 | 9277 ft | 289 kts | 355° |
| 2026-04-30 08:42 | 42.88918 | 23.32801 | 9936 ft | 295 kts | 357° |
| 2026-04-30 08:42 | 42.91011 | 23.32819 | 10309 ft | 310 kts | 357° |
| 2026-04-30 08:42 | 42.93253 | 23.32842 | 10456 ft | 333 kts | 358° |
| 2026-04-30 08:42 | 42.95641 | 23.32854 | 10592 ft | 353 kts | 357° |
| 2026-04-30 08:43 | 42.98154 | 23.32857 | 10913 ft | 365 kts | 357° |
| 2026-04-30 08:43 | 43.00710 | 23.32854 | 11502 ft | 368 kts | 356° |
| 2026-04-30 08:43 | 43.03282 | 23.32842 | 12112 ft | 371 kts | 356° |
| 2026-04-30 08:43 | 43.05876 | 23.32818 | 12711 ft | 374 kts | 355° |
| 2026-04-30 08:44 | 43.08495 | 23.32790 | 13265 ft | 377 kts | 355° |
| 2026-04-30 08:44 | 43.11135 | 23.32761 | 13836 ft | 381 kts | 354° |
| 2026-04-30 08:44 | 43.13763 | 23.32732 | 14392 ft | 384 kts | 354° |
| 2026-04-30 08:44 | 43.16452 | 23.32682 | 14903 ft | 385 kts | 352° |
| 2026-04-30 08:45 | 43.19087 | 23.32148 | 15448 ft | 381 kts | 340° |
| 2026-04-30 08:45 | 43.21581 | 23.30958 | 16018 ft | 377 kts | 329° |
| 2026-04-30 08:45 | 43.23844 | 23.29180 | 16617 ft | 373 kts | 319° |
| 2026-04-30 08:45 | 43.25818 | 23.26890 | 17201 ft | 370 kts | 311° |
| 2026-04-30 08:46 | 43.27648 | 23.24452 | 17722 ft | 373 kts | 311° |
| 2026-04-30 08:46 | 43.29528 | 23.21955 | 18218 ft | 376 kts | 311° |
| 2026-04-30 08:46 | 43.31417 | 23.19452 | 18660 ft | 378 kts | 311° |
| 2026-04-30 08:46 | 43.33315 | 23.16940 | 19091 ft | 380 kts | 311° |
| 2026-04-30 08:47 | 43.35224 | 23.14414 | 19532 ft | 380 kts | 311° |
| 2026-04-30 08:47 | 43.37121 | 23.11901 | 20034 ft | 379 kts | 311° |
| 2026-04-30 08:47 | 43.39030 | 23.09371 | 20566 ft | 379 kts | 310° |
| 2026-04-30 08:47 | 43.40890 | 23.06907 | 21070 ft | 378 kts | 310° |
| 2026-04-30 08:48 | 43.42793 | 23.04384 | 21576 ft | 378 kts | 310° |
| 2026-04-30 08:48 | 43.44690 | 23.01863 | 22115 ft | 377 kts | 310° |
| 2026-04-30 08:48 | 43.46580 | 22.99346 | 22652 ft | 378 kts | 310° |
| 2026-04-30 08:48 | 43.48468 | 22.96828 | 23198 ft | 377 kts | 310° |
| 2026-04-30 08:49 | 43.50351 | 22.94312 | 23759 ft | 376 kts | 309° |
| 2026-04-30 08:49 | 43.52202 | 22.91838 | 24233 ft | 375 kts | 309° |
| 2026-04-30 08:49 | 43.54080 | 22.89332 | 24706 ft | 374 kts | 309° |
| 2026-04-30 08:49 | 43.55951 | 22.86835 | 25186 ft | 373 kts | 309° |
| 2026-04-30 08:50 | 43.57809 | 22.84351 | 25680 ft | 372 kts | 309° |
| 2026-04-30 08:50 | 43.59668 | 22.81859 | 26180 ft | 370 kts | 308° |
| 2026-04-30 08:50 | 43.61508 | 22.79392 | 26706 ft | 368 kts | 308° |
| 2026-04-30 08:50 | 43.63339 | 22.76936 | 27220 ft | 365 kts | 308° |
| 2026-04-30 08:51 | 43.65156 | 22.74495 | 27745 ft | 363 kts | 308° |
| 2026-04-30 08:51 | 43.66145 | 22.73168 | 28070 ft | 361 kts | 308° |
| 2026-04-30 08:55 | 43.68076 | 22.70604 | 28424 ft | 363 kts | 308° |
| 2026-04-30 08:55 | 43.69893 | 22.68157 | 28725 ft | 365 kts | 307° |
| 2026-04-30 08:55 | 43.71710 | 22.65692 | 29080 ft | 366 kts | 307° |
| 2026-04-30 08:55 | 43.73503 | 22.63258 | 29550 ft | 364 kts | 307° |
| 2026-04-30 08:56 | 43.75309 | 22.60810 | 30089 ft | 362 kts | 307° |
| 2026-04-30 08:56 | 43.77107 | 22.58387 | 30586 ft | 359 kts | 307° |
| 2026-04-30 08:56 | 43.78893 | 22.55981 | 30987 ft | 358 kts | 307° |
| 2026-04-30 08:56 | 43.80676 | 22.53571 | 31337 ft | 358 kts | 307° |
| 2026-04-30 08:57 | 43.82465 | 22.51145 | 31659 ft | 358 kts | 308° |
| 2026-04-30 08:57 | 43.84221 | 22.48759 | 31966 ft | 358 kts | 308° |
| 2026-04-30 08:57 | 43.86002 | 22.46331 | 32267 ft | 359 kts | 308° |
| 2026-04-30 08:57 | 43.87789 | 22.43893 | 32577 ft | 359 kts | 308° |
| 2026-04-30 08:58 | 43.89576 | 22.41463 | 32875 ft | 360 kts | 308° |
| 2026-04-30 08:58 | 43.91320 | 22.39029 | 33178 ft | 357 kts | 305° |
| 2026-04-30 08:58 | 43.92894 | 22.36375 | 33470 ft | 355 kts | 303° |
| 2026-04-30 08:58 | 43.94452 | 22.33684 | 33754 ft | 358 kts | 303° |
| 2026-04-30 08:59 | 43.96016 | 22.30973 | 33957 ft | 361 kts | 304° |
| 2026-04-30 08:59 | 43.97590 | 22.28249 | 34211 ft | 362 kts | 304° |
| 2026-04-30 08:59 | 43.99171 | 22.25521 | 34448 ft | 363 kts | 304° |
| 2026-04-30 08:59 | 44.00755 | 22.22787 | 34675 ft | 363 kts | 304° |
| 2026-04-30 09:00 | 44.02342 | 22.20049 | 34865 ft | 364 kts | 304° |
| 2026-04-30 09:00 | 44.03914 | 22.17333 | 35073 ft | 365 kts | 304° |
| 2026-04-30 09:00 | 44.05505 | 22.14578 | 35287 ft | 366 kts | 304° |
| 2026-04-30 09:00 | 44.07098 | 22.11815 | 35481 ft | 366 kts | 304° |
| 2026-04-30 09:01 | 44.08693 | 22.09044 | 35665 ft | 367 kts | 304° |
| 2026-04-30 09:01 | 44.10292 | 22.06260 | 35833 ft | 368 kts | 304° |
| 2026-04-30 09:01 | 44.11888 | 22.03485 | 36010 ft | 368 kts | 304° |
| 2026-04-30 09:01 | 44.13493 | 22.00697 | 36186 ft | 369 kts | 305° |
| 2026-04-30 09:02 | 44.16709 | 21.95083 | 36283 ft | 375 kts | 305° |
| 2026-04-30 09:02 | 44.19994 | 21.89331 | 36289 ft | 386 kts | 305° |
| 2026-04-30 09:03 | 44.23392 | 21.83370 | 36289 ft | 399 kts | 305° |
| 2026-04-30 09:03 | 44.26889 | 21.77224 | 36292 ft | 408 kts | 305° |
| 2026-04-30 09:04 | 44.30441 | 21.70994 | 36288 ft | 411 kts | 305° |
| 2026-04-30 09:04 | 44.33981 | 21.64782 | 36292 ft | 412 kts | 305° |
| 2026-04-30 09:05 | 44.37528 | 21.58519 | 36296 ft | 411 kts | 305° |
| 2026-04-30 09:05 | 44.41080 | 21.52227 | 36300 ft | 412 kts | 305° |
| 2026-04-30 09:06 | 44.44635 | 21.45916 | 36312 ft | 413 kts | 306° |
| 2026-04-30 09:06 | 44.48176 | 21.39621 | 36311 ft | 414 kts | 306° |
| 2026-04-30 09:07 | 44.51747 | 21.33267 | 36312 ft | 415 kts | 306° |
| 2026-04-30 09:07 | 44.55316 | 21.26897 | 36334 ft | 415 kts | 306° |
| 2026-04-30 09:08 | 44.58888 | 21.20500 | 36319 ft | 416 kts | 306° |
| 2026-04-30 09:08 | 44.62465 | 21.14087 | 36311 ft | 417 kts | 306° |
| 2026-04-30 09:09 | 44.66101 | 21.07799 | 36320 ft | 417 kts | 307° |
| 2026-04-30 09:09 | 44.69828 | 21.01525 | 36319 ft | 418 kts | 307° |
| 2026-04-30 09:10 | 44.73546 | 20.95235 | 36320 ft | 418 kts | 307° |
| 2026-04-30 09:10 | 44.77238 | 20.88917 | 36327 ft | 418 kts | 307° |
| 2026-04-30 09:11 | 44.80918 | 20.82584 | 36320 ft | 418 kts | 307° |
| 2026-04-30 09:11 | 44.84603 | 20.76241 | 36330 ft | 418 kts | 307° |
| 2026-04-30 09:12 | 44.88264 | 20.69933 | 36330 ft | 418 kts | 307° |
| 2026-04-30 09:12 | 44.91948 | 20.63568 | 36344 ft | 419 kts | 307° |
| 2026-04-30 09:13 | 44.95631 | 20.57189 | 36344 ft | 419 kts | 307° |
| 2026-04-30 09:13 | 44.99312 | 20.50787 | 36347 ft | 419 kts | 307° |
| 2026-04-30 09:14 | 45.02994 | 20.44384 | 36355 ft | 419 kts | 307° |
| 2026-04-30 09:14 | 45.06644 | 20.38015 | 36355 ft | 419 kts | 307° |
| 2026-04-30 09:15 | 45.10320 | 20.31601 | 36350 ft | 420 kts | 307° |
| 2026-04-30 09:15 | 45.14002 | 20.25150 | 36352 ft | 421 kts | 307° |
| 2026-04-30 09:16 | 45.17686 | 20.18679 | 36363 ft | 422 kts | 307° |
| 2026-04-30 09:16 | 45.21378 | 20.12184 | 36358 ft | 423 kts | 307° |
| 2026-04-30 09:17 | 45.25045 | 20.05714 | 36359 ft | 424 kts | 307° |
| 2026-04-30 09:17 | 45.28737 | 19.99180 | 36358 ft | 424 kts | 308° |
| 2026-04-30 09:18 | 45.32447 | 19.92618 | 36358 ft | 425 kts | 309° |
| 2026-04-30 09:18 | 45.36316 | 19.86237 | 36365 ft | 426 kts | 311° |
| 2026-04-30 09:19 | 45.40249 | 19.80008 | 36364 ft | 426 kts | 311° |
| 2026-04-30 09:19 | 45.44198 | 19.73692 | 36362 ft | 426 kts | 310° |
| 2026-04-30 09:20 | 45.48110 | 19.67332 | 36381 ft | 427 kts | 311° |
| 2026-04-30 09:20 | 45.52016 | 19.60948 | 36378 ft | 427 kts | 311° |
| 2026-04-30 09:21 | 45.55898 | 19.54585 | 36376 ft | 428 kts | 311° |
| 2026-04-30 09:21 | 45.59808 | 19.48175 | 36376 ft | 428 kts | 311° |
| 2026-04-30 09:22 | 45.63715 | 19.41756 | 36377 ft | 428 kts | 310° |
| 2026-04-30 09:22 | 45.67629 | 19.35307 | 36376 ft | 428 kts | 310° |
| 2026-04-30 09:23 | 45.71514 | 19.28895 | 36383 ft | 431 kts | 310° |
| 2026-04-30 09:23 | 45.75438 | 19.22407 | 36380 ft | 429 kts | 311° |
| 2026-04-30 09:24 | 45.79345 | 19.15941 | 36366 ft | 429 kts | 311° |
| 2026-04-30 09:24 | 45.83252 | 19.09447 | 36378 ft | 430 kts | 311° |
| 2026-04-30 09:25 | 45.87124 | 19.02992 | 36382 ft | 430 kts | 311° |
| 2026-04-30 09:25 | 45.91010 | 18.96495 | 36385 ft | 429 kts | 311° |
| 2026-04-30 09:26 | 45.94709 | 18.89761 | 36390 ft | 429 kts | 306° |
| 2026-04-30 09:26 | 45.98148 | 18.82739 | 36391 ft | 429 kts | 306° |
| 2026-04-30 09:27 | 46.01584 | 18.75709 | 36392 ft | 429 kts | 306° |
| 2026-04-30 09:27 | 46.04994 | 18.68724 | 36410 ft | 429 kts | 306° |
| 2026-04-30 09:28 | 46.08425 | 18.61674 | 36404 ft | 429 kts | 306° |
| 2026-04-30 09:28 | 46.11842 | 18.54617 | 36391 ft | 429 kts | 306° |
| 2026-04-30 09:29 | 46.15266 | 18.47556 | 36395 ft | 430 kts | 306° |
| 2026-04-30 09:29 | 46.18669 | 18.40521 | 36403 ft | 430 kts | 306° |
| 2026-04-30 09:30 | 46.22081 | 18.33426 | 36404 ft | 430 kts | 306° |
| 2026-04-30 09:30 | 46.25480 | 18.26343 | 36391 ft | 430 kts | 306° |
| 2026-04-30 09:31 | 46.28896 | 18.19220 | 36402 ft | 430 kts | 306° |
| 2026-04-30 09:31 | 46.32296 | 18.12105 | 36408 ft | 430 kts | 306° |
| 2026-04-30 09:32 | 46.35689 | 18.04969 | 36411 ft | 430 kts | 306° |
| 2026-04-30 09:32 | 46.39065 | 17.97856 | 36425 ft | 430 kts | 306° |
| 2026-04-30 09:33 | 46.42459 | 17.90698 | 36408 ft | 431 kts | 306° |
| 2026-04-30 09:33 | 46.45839 | 17.83563 | 36412 ft | 431 kts | 306° |
| 2026-04-30 09:34 | 46.49227 | 17.76395 | 36420 ft | 431 kts | 306° |
| 2026-04-30 09:34 | 46.52611 | 17.69198 | 36422 ft | 431 kts | 306° |
| 2026-04-30 09:35 | 46.55994 | 17.61992 | 36409 ft | 431 kts | 306° |
| 2026-04-30 09:35 | 46.59371 | 17.54776 | 36427 ft | 432 kts | 306° |
| 2026-04-30 09:36 | 46.62746 | 17.47540 | 36439 ft | 432 kts | 306° |
| 2026-04-30 09:36 | 46.66097 | 17.40346 | 36449 ft | 432 kts | 306° |
| 2026-04-30 09:37 | 46.69461 | 17.33099 | 36456 ft | 432 kts | 306° |
| 2026-04-30 09:37 | 46.72836 | 17.25830 | 36431 ft | 433 kts | 306° |
| 2026-04-30 09:38 | 46.76207 | 17.18551 | 36435 ft | 434 kts | 306° |
| 2026-04-30 09:38 | 46.79585 | 17.11221 | 36442 ft | 435 kts | 306° |
| 2026-04-30 09:39 | 46.82954 | 17.03867 | 36449 ft | 435 kts | 306° |
| 2026-04-30 09:39 | 46.86295 | 16.96554 | 36449 ft | 436 kts | 306° |
| 2026-04-30 09:40 | 46.89668 | 16.89192 | 36438 ft | 436 kts | 306° |
| 2026-04-30 09:40 | 46.93040 | 16.81812 | 36443 ft | 436 kts | 306° |
| 2026-04-30 09:41 | 46.96410 | 16.74406 | 36457 ft | 437 kts | 306° |
| 2026-04-30 09:41 | 46.99768 | 16.66990 | 36447 ft | 437 kts | 306° |
| 2026-04-30 09:42 | 47.03136 | 16.59547 | 36424 ft | 437 kts | 306° |
| 2026-04-30 09:42 | 47.06499 | 16.52088 | 36445 ft | 438 kts | 306° |
| 2026-04-30 09:43 | 47.09841 | 16.44659 | 36438 ft | 439 kts | 306° |
| 2026-04-30 09:43 | 47.13209 | 16.37164 | 36457 ft | 439 kts | 306° |
| 2026-04-30 09:44 | 47.15940 | 16.29088 | 36452 ft | 443 kts | 296° |
| 2026-04-30 09:44 | 47.18376 | 16.20813 | 36442 ft | 443 kts | 296° |
| 2026-04-30 09:45 | 47.20825 | 16.12480 | 36443 ft | 444 kts | 296° |
| 2026-04-30 09:45 | 47.22867 | 16.05534 | 36447 ft | 444 kts | 296° |
| 2026-04-30 09:46 | 47.25714 | 15.95839 | 36447 ft | 444 kts | 296° |
| 2026-04-30 09:46 | 47.27741 | 15.88879 | 36408 ft | 444 kts | 297° |
| 2026-04-30 09:47 | 47.30582 | 15.79075 | 36419 ft | 445 kts | 297° |
| 2026-04-30 09:47 | 47.32604 | 15.72080 | 36423 ft | 445 kts | 297° |
| 2026-04-30 09:48 | 47.35023 | 15.63723 | 36424 ft | 446 kts | 297° |
| 2026-04-30 09:48 | 47.37448 | 15.55281 | 36423 ft | 446 kts | 296° |
| 2026-04-30 09:49 | 47.39864 | 15.46835 | 36398 ft | 447 kts | 297° |
| 2026-04-30 09:49 | 47.42268 | 15.38414 | 36404 ft | 447 kts | 297° |
| 2026-04-30 09:50 | 47.44678 | 15.29934 | 36403 ft | 448 kts | 297° |
| 2026-04-30 09:50 | 47.47085 | 15.21431 | 36410 ft | 448 kts | 297° |
| 2026-04-30 09:51 | 47.49486 | 15.12927 | 36395 ft | 449 kts | 297° |
| 2026-04-30 09:51 | 47.51891 | 15.04393 | 36404 ft | 449 kts | 297° |
| 2026-04-30 09:52 | 47.54283 | 14.95856 | 36412 ft | 449 kts | 297° |
| 2026-04-30 09:52 | 47.56663 | 14.87336 | 36415 ft | 450 kts | 297° |
| 2026-04-30 09:53 | 47.59051 | 14.78775 | 36385 ft | 449 kts | 297° |
| 2026-04-30 09:53 | 47.61422 | 14.70236 | 36403 ft | 450 kts | 297° |
| 2026-04-30 09:54 | 47.63797 | 14.61648 | 36418 ft | 450 kts | 297° |
| 2026-04-30 09:54 | 47.66154 | 14.53105 | 36169 ft | 451 kts | 297° |
| 2026-04-30 09:55 | 47.67339 | 14.48800 | 35703 ft | 450 kts | 297° |
| 2026-04-30 09:55 | 47.68520 | 14.44495 | 35243 ft | 451 kts | 297° |
| 2026-04-30 09:55 | 47.69709 | 14.40159 | 34761 ft | 452 kts | 297° |
| 2026-04-30 09:55 | 47.70896 | 14.35817 | 34298 ft | 455 kts | 298° |
| 2026-04-30 09:56 | 47.72090 | 14.31443 | 33766 ft | 457 kts | 298° |
| 2026-04-30 09:56 | 47.73272 | 14.27105 | 33258 ft | 459 kts | 298° |
| 2026-04-30 09:56 | 47.74476 | 14.22679 | 32757 ft | 461 kts | 298° |
| 2026-04-30 09:56 | 47.75673 | 14.18253 | 32241 ft | 462 kts | 297° |
| 2026-04-30 09:57 | 47.76875 | 14.13806 | 31760 ft | 463 kts | 298° |
| 2026-04-30 09:57 | 47.78080 | 14.09353 | 31270 ft | 465 kts | 298° |
| 2026-04-30 09:57 | 47.79290 | 14.04878 | 30800 ft | 468 kts | 299° |
| 2026-04-30 09:57 | 47.80510 | 14.00361 | 30224 ft | 472 kts | 299° |
| 2026-04-30 09:58 | 47.81734 | 13.95819 | 29641 ft | 475 kts | 298° |
| 2026-04-30 09:58 | 47.82960 | 13.91254 | 29077 ft | 476 kts | 298° |
| 2026-04-30 09:58 | 47.84187 | 13.86657 | 28524 ft | 478 kts | 298° |
| 2026-04-30 09:58 | 47.85412 | 13.82055 | 27982 ft | 476 kts | 298° |
| 2026-04-30 09:59 | 47.87828 | 13.72926 | 26926 ft | 469 kts | 298° |
| 2026-04-30 09:59 | 47.90191 | 13.64020 | 25883 ft | 462 kts | 297° |
| 2026-04-30 10:00 | 47.92543 | 13.55132 | 24909 ft | 457 kts | 297° |
| 2026-04-30 10:00 | 47.93704 | 13.50725 | 24445 ft | 454 kts | 297° |
| 2026-04-30 10:01 | 47.95857 | 13.42547 | 23559 ft | 448 kts | 297° |
| 2026-04-30 10:01 | 47.96992 | 13.38219 | 23019 ft | 445 kts | 297° |
| 2026-04-30 10:01 | 47.98115 | 13.33921 | 22513 ft | 441 kts | 296° |
| 2026-04-30 10:02 | 48.00319 | 13.25459 | 21486 ft | 433 kts | 296° |
| 2026-04-30 10:02 | 48.01393 | 13.21328 | 21016 ft | 430 kts | 296° |
| 2026-04-30 10:02 | 48.02470 | 13.17183 | 20516 ft | 426 kts | 296° |
| 2026-04-30 10:02 | 48.03540 | 13.13063 | 20054 ft | 423 kts | 296° |
| 2026-04-30 10:03 | 48.04598 | 13.08981 | 19592 ft | 419 kts | 296° |
| 2026-04-30 10:03 | 48.05650 | 13.04917 | 19133 ft | 416 kts | 295° |
| 2026-04-30 10:03 | 48.06686 | 13.00903 | 18681 ft | 412 kts | 295° |
| 2026-04-30 10:03 | 48.07695 | 12.96974 | 18176 ft | 409 kts | 295° |
| 2026-04-30 10:04 | 48.08691 | 12.93009 | 17684 ft | 407 kts | 292° |
| 2026-04-30 10:04 | 48.09370 | 12.88906 | 17212 ft | 407 kts | 282° |
| 2026-04-30 10:04 | 48.09766 | 12.84707 | 16744 ft | 405 kts | 281° |
| 2026-04-30 10:04 | 48.10155 | 12.80545 | 16306 ft | 402 kts | 281° |
| 2026-04-30 10:05 | 48.10544 | 12.76428 | 15878 ft | 399 kts | 281° |
| 2026-04-30 10:05 | 48.10933 | 12.72323 | 15449 ft | 396 kts | 281° |
| 2026-04-30 10:05 | 48.11317 | 12.68258 | 15038 ft | 393 kts | 281° |
| 2026-04-30 10:05 | 48.11690 | 12.64268 | 14637 ft | 391 kts | 281° |
| 2026-04-30 10:06 | 48.12064 | 12.60247 | 14231 ft | 388 kts | 280° |
| 2026-04-30 10:06 | 48.12429 | 12.56300 | 13768 ft | 375 kts | 281° |
| 2026-04-30 10:06 | 48.12772 | 12.52543 | 13304 ft | 355 kts | 280° |
| 2026-04-30 10:06 | 48.13100 | 12.48941 | 12856 ft | 345 kts | 281° |
| 2026-04-30 10:07 | 48.13426 | 12.45400 | 12421 ft | 343 kts | 281° |
| 2026-04-30 10:07 | 48.13750 | 12.41868 | 11974 ft | 339 kts | 279° |
| 2026-04-30 10:07 | 48.14066 | 12.38380 | 11600 ft | 337 kts | 281° |
| 2026-04-30 10:07 | 48.14382 | 12.34896 | 11219 ft | 337 kts | 281° |
| 2026-04-30 10:08 | 48.14672 | 12.31417 | 10854 ft | 334 kts | 279° |
| 2026-04-30 10:08 | 48.14918 | 12.28021 | 10491 ft | 332 kts | 279° |
| 2026-04-30 10:08 | 48.15150 | 12.24578 | 10133 ft | 327 kts | 277° |
| 2026-04-30 10:08 | 48.15366 | 12.21299 | 9987 ft | 306 kts | 277° |
| 2026-04-30 10:09 | 48.15569 | 12.18187 | 9627 ft | 297 kts | 279° |
| 2026-04-30 10:09 | 48.15776 | 12.15115 | 9201 ft | 296 kts | 277° |
| 2026-04-30 10:09 | 48.15983 | 12.12070 | 8797 ft | 293 kts | 278° |
| 2026-04-30 10:09 | 48.16196 | 12.09003 | 8323 ft | 297 kts | 277° |
| 2026-04-30 10:10 | 48.16408 | 12.05944 | 7977 ft | 295 kts | 277° |
| 2026-04-30 10:10 | 48.16617 | 12.02911 | 7626 ft | 295 kts | 277° |
| 2026-04-30 10:10 | 48.16825 | 11.99868 | 7223 ft | 295 kts | 276° |
| 2026-04-30 10:10 | 48.17031 | 11.96804 | 6875 ft | 293 kts | 276° |
| 2026-04-30 10:11 | 48.17233 | 11.93778 | 6552 ft | 291 kts | 276° |
| 2026-04-30 10:11 | 48.17432 | 11.90784 | 6203 ft | 288 kts | 276° |
| 2026-04-30 10:11 | 48.17631 | 11.87783 | 5764 ft | 290 kts | 275° |
| 2026-04-30 10:11 | 48.17831 | 11.84782 | 5487 ft | 287 kts | 275° |
| 2026-04-30 10:12 | 48.18007 | 11.81805 | 5102 ft | 288 kts | 275° |
| 2026-04-30 10:12 | 48.18168 | 11.78828 | 5004 ft | 287 kts | 274° |
| 2026-04-30 10:12 | 48.18325 | 11.75889 | 4904 ft | 283 kts | 274° |
| 2026-04-30 10:12 | 48.18476 | 11.72990 | 4765 ft | 274 kts | 275° |
| 2026-04-30 10:13 | 48.18620 | 11.70183 | 4594 ft | 267 kts | 275° |
| 2026-04-30 10:13 | 48.18809 | 11.67428 | 4390 ft | 262 kts | 286° |
| 2026-04-30 10:13 | 48.19632 | 11.65073 | 4188 ft | 253 kts | 317° |
| 2026-04-30 10:13 | 48.21068 | 11.63682 | 3859 ft | 241 kts | 349° |
| 2026-04-30 10:14 | 48.22668 | 11.63391 | 3694 ft | 225 kts | 2° |
| 2026-04-30 10:14 | 48.24196 | 11.63320 | 3564 ft | 214 kts | 4° |
| 2026-04-30 10:14 | 48.27056 | 11.63181 | 3131 ft | 201 kts | 4° |
| 2026-04-30 10:15 | 48.28433 | 11.63117 | 3016 ft | 197 kts | 6° |
| 2026-04-30 10:15 | 48.29780 | 11.63052 | 2993 ft | 186 kts | 6° |
| 2026-04-30 10:15 | 48.31016 | 11.63310 | 3005 ft | 177 kts | 25° |
| 2026-04-30 10:15 | 48.32098 | 11.64144 | 2950 ft | 172 kts | 43° |
| 2026-04-30 10:16 | 48.32895 | 11.65387 | 2848 ft | 156 kts | 58° |
| 2026-04-30 10:16 | 48.33347 | 11.66749 | 2670 ft | 138 kts | 73° |
| 2026-04-30 10:16 | 48.33521 | 11.68139 | 2487 ft | 131 kts | 84° |
| 2026-04-30 10:17 | 48.33738 | 11.70898 | 2110 ft | 132 kts | 82° |
| 2026-04-30 10:17 | 48.33953 | 11.73657 | 1735 ft | 131 kts | 82° |
| 2026-04-30 10:17 | 48.34057 | 11.75041 | 1561 ft | 134 kts | 82° |
| 2026-04-30 10:18 | 48.34169 | 11.76357 | 1476 ft | 114 kts | 80° |
| 2026-04-30 10:18 | 48.34237 | 11.77383 | 1462 ft | 78 kts | 81° |
| 2026-04-30 10:18 | 48.34285 | 11.77942 | 1470 ft | 36 kts | 83° |
| 2026-04-30 10:19 | 48.34440 | 11.78468 | 1467 ft | 22 kts | 58° |
| 2026-04-30 10:19 | 48.34492 | 11.78577 | 1466 ft | 6 kts | 52° |
| 2026-04-30 10:19 | 48.34524 | 11.78642 | 1463 ft | 10 kts | 54° |
| 2026-04-30 10:19 | 48.34544 | 11.78683 | 1459 ft | 5 kts | 48° |
| 2026-04-30 10:20 | 48.34562 | 11.78698 | 1465 ft | 3 kts | 25° |
| 2026-04-30 10:20 | 48.34645 | 11.78740 | 1459 ft | 10 kts | 357° |
| 2026-04-30 10:20 | 48.34716 | 11.78742 | 1463 ft | 10 kts | 28° |
| 2026-04-30 10:21 | 48.34734 | 11.78851 | 1467 ft | 16 kts | 84° |
| 2026-04-30 10:21 | 48.34751 | 11.79070 | 1462 ft | 22 kts | 83° |
| 2026-04-30 10:21 | 48.34769 | 11.79298 | 1460 ft | 21 kts | 84° |
| 2026-04-30 10:21 | 48.34786 | 11.79519 | 1467 ft | 17 kts | 83° |
| 2026-04-30 10:22 | 48.34822 | 11.79682 | 1463 ft | 17 kts | 29° |
| 2026-04-30 10:22 | 48.34941 | 11.79680 | 1459 ft | 18 kts | 353° |
| 2026-04-30 10:22 | 48.35066 | 11.79659 | 1463 ft | 17 kts | 354° |
| 2026-04-30 10:22 | 48.35160 | 11.79644 | 1461 ft | 10 kts | 354° |
| 2026-04-30 10:23 | 48.35188 | 11.79661 | 1465 ft | 5 kts | 51° |
| 2026-04-30 10:23 | 48.35196 | 11.79717 | 1467 ft | 6 kts | 84° |
| 2026-04-30 10:23 | 48.35200 | 11.79768 | 1458 ft | 5 kts | 83° |
| 2026-04-30 10:23 | 48.35201 | 11.79779 | 1459 ft | 0 kts | 83° |